createdAt,value
2023-02-08T00:01:35.599Z,53.27
2023-02-08T00:04:01.960Z,51.13
2023-02-08T00:06:28.291Z,56.23
2023-02-08T00:08:54.610Z,51.63
2023-02-08T00:11:21.090Z,54.87
2023-02-08T00:13:47.420Z,51.17
2023-02-08T00:16:13.880Z,51.07
2023-02-08T00:18:40.266Z,55.10
2023-02-08T00:21:06.585Z,53.33
2023-02-08T00:23:32.918Z,52.77
2023-02-08T00:25:59.235Z,48.63
2023-02-08T00:28:25.632Z,56.60
2023-02-08T00:30:52.025Z,54.10
2023-02-08T00:33:18.344Z,52.40
2023-02-08T00:35:44.651Z,50.80
2023-02-08T00:38:10.962Z,52.30
2023-02-08T00:40:37.472Z,52.20
2023-02-08T00:43:03.862Z,53.40
2023-02-08T00:45:30.235Z,50.17
2023-02-08T00:47:56.610Z,52.07
2023-02-08T00:50:22.938Z,51.37
2023-02-08T00:52:49.253Z,49.50
2023-02-08T00:55:15.576Z,50.13
2023-02-08T00:57:41.897Z,51.03
2023-02-08T01:00:09.181Z,49.47
2023-02-08T01:02:35.492Z,45.87
2023-02-08T01:05:01.854Z,50.17
2023-02-08T01:07:28.213Z,48.43
2023-02-08T01:09:54.567Z,51.90
2023-02-08T01:12:20.898Z,46.57
2023-02-08T01:14:47.231Z,47.43
2023-02-08T01:17:13.580Z,51.80
2023-02-08T01:19:42.379Z,46.83
2023-02-08T01:22:08.877Z,45.60
2023-02-08T01:24:35.214Z,47.50
2023-02-08T01:27:01.558Z,44.13
2023-02-08T01:29:27.909Z,51.53
2023-02-08T01:31:54.311Z,45.97
2023-02-08T01:34:20.649Z,48.23
2023-02-08T01:36:46.954Z,45.33
2023-02-08T01:39:13.342Z,45.33
2023-02-08T01:41:39.727Z,44.33
2023-02-08T01:44:06.136Z,47.13
2023-02-08T01:46:32.481Z,46.23
2023-02-08T01:48:58.877Z,45.53
2023-02-08T01:51:25.199Z,47.60
2023-02-08T01:53:51.554Z,43.73
2023-02-08T01:56:17.881Z,46.13
2023-02-08T01:58:44.180Z,41.63
2023-02-08T02:01:10.626Z,41.90
2023-02-08T02:03:36.950Z,45.77
2023-02-08T02:06:03.278Z,42.63
2023-02-08T02:08:29.590Z,46.97
2023-02-08T02:10:55.917Z,42.53
2023-02-08T02:13:22.252Z,45.20
2023-02-08T02:15:48.820Z,42.27
2023-02-08T02:18:15.127Z,40.07
2023-02-08T02:20:41.740Z,39.20
2023-02-08T02:23:08.295Z,40.73
2023-02-08T02:25:34.617Z,41.87
2023-02-08T02:28:01.002Z,38.37
2023-02-08T02:30:27.346Z,39.67
2023-02-08T02:32:53.678Z,41.27
2023-02-08T02:35:20.012Z,40.27
2023-02-08T02:37:49.217Z,36.53
2023-02-08T02:40:15.517Z,42.20
2023-02-08T02:43:00.720Z,40.57
2023-02-08T02:45:27.056Z,42.30
2023-02-08T02:47:53.401Z,42.10
2023-02-08T02:50:19.784Z,35.73
2023-02-08T02:52:46.136Z,36.07
2023-02-08T02:55:12.444Z,40.43
2023-02-08T02:57:38.761Z,40.53
2023-02-08T03:00:05.079Z,37.17
2023-02-08T03:02:31.389Z,38.43
2023-02-08T03:04:57.716Z,38.70
2023-02-08T03:07:24.041Z,36.67
2023-02-08T03:09:50.538Z,45.23
2023-02-08T03:12:16.905Z,37.63
2023-02-08T03:14:43.224Z,42.47
2023-02-08T03:17:09.538Z,36.20
2023-02-08T03:19:36.280Z,39.10
2023-02-08T03:22:02.661Z,38.07
2023-02-08T03:24:29.007Z,41.57
2023-02-08T03:26:55.426Z,36.43
2023-02-08T03:29:21.729Z,37.10
2023-02-08T03:31:48.135Z,36.47
2023-02-08T03:34:14.605Z,37.73
2023-02-08T03:36:40.926Z,43.57
2023-02-08T03:39:07.672Z,40.73
2023-02-08T03:41:34.070Z,37.90
2023-02-08T03:44:00.398Z,38.60
2023-02-08T03:46:26.825Z,41.53
2023-02-08T03:48:53.158Z,36.87
2023-02-08T03:51:19.476Z,38.40
2023-02-08T03:53:45.785Z,40.70
2023-02-08T03:56:12.174Z,38.10
2023-02-08T03:58:38.495Z,42.13
2023-02-08T04:01:04.839Z,38.83
2023-02-08T04:03:31.185Z,38.20
2023-02-08T04:05:57.507Z,37.67
2023-02-08T04:08:23.875Z,38.30
2023-02-08T04:10:50.202Z,38.40
2023-02-08T04:13:16.590Z,40.47
2023-02-08T04:15:44.456Z,39.50
2023-02-08T04:18:10.839Z,38.60
2023-02-08T04:20:37.183Z,40.40
2023-02-08T04:23:03.579Z,38.80
2023-02-08T04:25:29.909Z,39.23
2023-02-08T04:27:56.216Z,40.00
2023-02-08T04:30:22.545Z,38.33
2023-02-08T04:32:48.897Z,40.13
2023-02-08T04:35:15.216Z,38.63
2023-02-08T04:37:41.535Z,34.10
2023-02-08T04:40:07.837Z,38.90
2023-02-08T04:42:34.237Z,40.03
2023-02-08T04:45:00.576Z,32.27
2023-02-08T04:47:26.895Z,35.23
2023-02-08T04:49:53.237Z,34.10
2023-02-08T04:52:19.551Z,37.17
2023-02-08T04:54:45.883Z,42.23
2023-02-08T04:57:12.228Z,38.33
2023-02-08T04:59:38.532Z,31.40
2023-02-08T05:02:04.993Z,36.67
2023-02-08T05:04:31.300Z,37.60
2023-02-08T05:06:57.625Z,39.87
2023-02-08T05:09:24.063Z,34.97
2023-02-08T05:11:50.400Z,37.07
2023-02-08T05:14:16.715Z,41.77
2023-02-08T05:16:43.063Z,39.47
2023-02-08T05:19:09.380Z,39.03
2023-02-08T05:21:35.702Z,42.40
2023-02-08T05:24:02.022Z,46.93
2023-02-08T05:26:28.438Z,45.23
2023-02-08T05:28:54.759Z,40.33
2023-02-08T05:31:21.364Z,45.33
2023-02-08T05:33:47.724Z,44.57
2023-02-08T05:36:14.031Z,44.90
2023-02-08T05:38:40.335Z,48.53
2023-02-08T05:41:06.640Z,40.80
2023-02-08T05:43:32.993Z,44.97
2023-02-08T05:45:59.314Z,45.93
2023-02-08T05:48:25.695Z,49.77
2023-02-08T05:50:52.062Z,54.30
2023-02-08T05:53:18.428Z,46.93
2023-02-08T05:55:45.100Z,46.33
2023-02-08T05:58:11.393Z,44.13
2023-02-08T06:00:37.714Z,50.70
2023-02-08T06:03:04.148Z,49.53
2023-02-08T06:05:30.562Z,50.97
2023-02-08T06:07:56.858Z,50.80
2023-02-08T06:10:23.177Z,47.27
2023-02-08T06:12:49.479Z,51.93
2023-02-08T06:15:15.795Z,52.47
2023-02-08T06:17:42.105Z,53.67
2023-02-08T06:20:08.424Z,48.87
2023-02-08T06:22:34.793Z,53.23
2023-02-08T06:25:01.093Z,46.07
2023-02-08T06:27:27.712Z,49.13
2023-02-08T06:29:54.064Z,47.03
2023-02-08T06:32:20.424Z,50.63
2023-02-08T06:34:48.354Z,48.30
2023-02-08T06:37:14.678Z,47.40
2023-02-08T06:39:41.547Z,50.50
2023-02-08T06:42:07.879Z,53.23
2023-02-08T06:44:34.196Z,46.67
2023-02-08T06:47:00.524Z,49.57
2023-02-08T06:49:26.842Z,52.70
2023-02-08T06:51:53.155Z,55.07
2023-02-08T06:54:19.511Z,50.50
2023-02-08T06:56:45.826Z,46.97
2023-02-08T06:59:12.138Z,50.23
2023-02-08T07:01:38.461Z,49.73
2023-02-08T07:04:04.785Z,57.63
2023-02-08T07:06:31.088Z,46.83
2023-02-08T07:08:57.405Z,53.37
2023-02-08T07:11:23.720Z,52.27
2023-02-08T07:13:50.063Z,46.10
2023-02-08T07:16:16.454Z,47.30
2023-02-08T07:18:42.769Z,52.30
2023-02-08T07:21:10.642Z,47.63
2023-02-08T07:23:36.983Z,54.43
2023-02-08T07:26:03.286Z,54.30
2023-02-08T07:28:29.592Z,44.53
2023-02-08T07:30:55.922Z,45.60
2023-02-08T07:33:22.216Z,47.87
2023-02-08T07:35:48.526Z,49.77
2023-02-08T07:38:14.860Z,44.40
2023-02-08T07:40:41.492Z,42.90
2023-02-08T07:43:07.989Z,46.87
2023-02-08T07:45:34.414Z,44.53
2023-02-08T07:48:00.740Z,50.97
2023-02-08T07:50:27.043Z,49.90
2023-02-08T07:52:53.389Z,49.37
2023-02-08T07:55:20.597Z,43.70
2023-02-08T07:57:47.436Z,50.70
2023-02-08T08:00:13.757Z,49.60
2023-02-08T08:02:40.122Z,46.77
2023-02-08T08:05:06.443Z,43.57
2023-02-08T08:07:32.803Z,46.77
2023-02-08T08:09:59.184Z,46.13
2023-02-08T08:12:25.569Z,46.53
2023-02-08T08:14:51.888Z,36.10
2023-02-08T08:17:18.211Z,41.70
2023-02-08T08:19:44.549Z,55.47
2023-02-08T08:22:10.843Z,51.17
2023-02-08T08:24:37.279Z,51.80
2023-02-08T08:27:04.756Z,50.60
2023-02-08T08:29:31.203Z,46.90
2023-02-08T08:31:57.534Z,48.90
2023-02-08T08:34:29.823Z,49.93
2023-02-08T08:36:56.162Z,41.80
2023-02-08T08:39:22.504Z,47.93
2023-02-08T08:41:48.814Z,47.60
2023-02-08T08:44:15.151Z,54.23
2023-02-08T08:46:41.665Z,43.33
2023-02-08T08:49:08.014Z,39.27
2023-02-08T08:51:35.552Z,46.07
2023-02-08T08:54:01.892Z,41.63
2023-02-08T08:56:28.238Z,40.87
2023-02-08T08:58:54.550Z,41.87
2023-02-08T09:01:21.023Z,42.23
2023-02-08T09:03:47.395Z,41.00
2023-02-08T09:06:13.738Z,43.63
2023-02-08T09:08:40.074Z,41.03
2023-02-08T09:11:06.439Z,39.53
2023-02-08T09:13:32.756Z,39.63
2023-02-08T09:15:59.274Z,39.67
2023-02-08T09:18:25.638Z,43.30
2023-02-08T09:20:51.958Z,37.10
2023-02-08T09:23:18.277Z,28.98
2023-02-08T09:25:44.674Z,34.53
2023-02-08T09:28:11.122Z,37.20
2023-02-08T09:30:37.530Z,36.47
2023-02-08T09:33:03.840Z,35.25
2023-02-08T09:35:30.408Z,35.43
2023-02-08T09:37:58.296Z,37.05
2023-02-08T09:40:24.710Z,33.77
2023-02-08T09:42:51.018Z,36.47
2023-02-08T09:45:17.357Z,35.13
2023-02-08T09:47:43.674Z,32.28
2023-02-08T09:50:09.984Z,34.60
2023-02-08T09:52:36.338Z,32.55
2023-02-08T09:55:02.702Z,32.77
2023-02-08T09:57:29.053Z,35.63
2023-02-08T09:59:55.434Z,34.00
2023-02-08T10:02:21.749Z,31.87
2023-02-08T10:04:48.056Z,36.50
2023-02-08T10:07:14.405Z,34.72
2023-02-08T10:09:40.728Z,29.98
2023-02-08T10:12:07.087Z,34.95
2023-02-08T10:14:33.404Z,33.88
2023-02-08T10:16:59.897Z,33.72
2023-02-08T10:19:26.201Z,32.22
2023-02-08T10:21:52.495Z,37.05
2023-02-08T10:24:18.812Z,33.35
2023-02-08T10:26:45.216Z,33.00
2023-02-08T10:29:11.566Z,31.40
2023-02-08T10:31:38.016Z,33.10
2023-02-08T10:34:05.513Z,34.63
2023-02-08T10:36:33.340Z,32.55
2023-02-08T10:38:59.657Z,28.50
2023-02-08T10:41:25.970Z,29.58
2023-02-08T10:43:52.573Z,31.12
2023-02-08T10:46:18.995Z,30.83
2023-02-08T10:48:45.347Z,31.45
2023-02-08T10:51:11.876Z,33.22
2023-02-08T10:53:38.255Z,31.58
2023-02-08T10:56:04.590Z,29.63
2023-02-08T10:58:30.984Z,34.22
2023-02-08T11:00:58.616Z,23.38
2023-02-08T11:03:25.034Z,28.60
2023-02-08T11:05:51.602Z,28.75
2023-02-08T11:08:19.776Z,31.73
2023-02-08T11:10:46.099Z,29.58
2023-02-08T11:13:12.418Z,29.42
2023-02-08T11:15:39.038Z,28.60
2023-02-08T11:18:05.358Z,32.63
2023-02-08T11:20:31.753Z,29.27
2023-02-08T11:22:58.067Z,25.10
2023-02-08T11:25:24.391Z,29.98
2023-02-08T11:27:50.831Z,29.85
2023-02-08T11:30:18.125Z,30.02
2023-02-08T11:32:44.445Z,28.60
2023-02-08T11:35:10.766Z,29.20
2023-02-08T11:37:37.121Z,27.98
2023-02-08T11:40:03.970Z,27.85
2023-02-08T11:42:30.340Z,30.65
2023-02-08T11:44:56.679Z,27.95
2023-02-08T11:47:22.997Z,28.50
2023-02-08T11:49:49.325Z,26.25
2023-02-08T11:52:15.634Z,18.00
2023-02-08T11:54:42.063Z,29.27
2023-02-08T11:57:08.389Z,26.77
2023-02-08T11:59:34.720Z,29.30
2023-02-08T12:02:01.031Z,29.73
2023-02-08T12:04:27.345Z,25.48
2023-02-08T12:06:53.674Z,24.67
2023-02-08T12:09:19.977Z,25.08
2023-02-08T12:11:46.305Z,27.23
2023-02-08T12:14:13.104Z,27.52
2023-02-08T12:16:39.515Z,28.08
2023-02-08T12:19:05.895Z,26.65
2023-02-08T12:21:32.204Z,26.33
2023-02-08T12:23:59.240Z,25.50
2023-02-08T12:26:25.564Z,27.35
2023-02-08T12:28:51.906Z,24.87
2023-02-08T12:31:18.364Z,26.17
2023-02-08T12:33:44.722Z,25.92
2023-02-08T12:36:11.456Z,28.00
2023-02-08T12:38:56.954Z,25.15
2023-02-08T12:41:23.584Z,30.30
2023-02-08T12:43:49.988Z,23.08
2023-02-08T12:46:16.308Z,26.08
2023-02-08T12:48:42.634Z,21.48
2023-02-08T12:51:08.999Z,25.88
2023-02-08T12:53:35.341Z,24.33
2023-02-08T12:56:01.655Z,20.62
2023-02-08T12:58:28.021Z,25.85
2023-02-08T13:00:54.395Z,21.73
2023-02-08T13:03:20.738Z,24.33
2023-02-08T13:06:01.355Z,24.02
2023-02-08T13:08:28.699Z,21.08
2023-02-08T13:10:55.028Z,23.23
2023-02-08T13:13:21.341Z,22.00
2023-02-08T13:15:47.888Z,20.50
2023-02-08T13:18:14.298Z,20.85
2023-02-08T13:20:40.654Z,22.70
2023-02-08T13:23:06.975Z,22.50
2023-02-08T13:25:33.311Z,22.65
2023-02-08T13:27:59.659Z,16.73
2023-02-08T13:30:26.036Z,22.83
2023-02-08T13:32:52.379Z,20.88
2023-02-08T13:35:18.700Z,23.55
2023-02-08T13:37:45.042Z,22.87
2023-02-08T13:40:11.409Z,19.20
2023-02-08T13:42:38.167Z,22.20
2023-02-08T13:45:04.474Z,26.35
2023-02-08T13:47:30.779Z,21.70
2023-02-08T13:49:57.164Z,26.83
2023-02-08T13:52:23.483Z,23.77
2023-02-08T13:54:49.789Z,27.10
2023-02-08T13:57:16.100Z,26.77
2023-02-08T13:59:42.533Z,24.98
2023-02-08T14:02:08.862Z,25.15
2023-02-08T14:04:35.272Z,23.38
2023-02-08T14:07:01.634Z,22.83
2023-02-08T14:09:28.056Z,23.77
2023-02-08T14:11:54.442Z,25.37
2023-02-08T14:14:20.803Z,23.02
2023-02-08T14:16:47.144Z,23.10
2023-02-08T14:19:13.467Z,22.55
2023-02-08T14:21:39.867Z,22.92
2023-02-08T14:24:06.315Z,21.62
2023-02-08T14:26:32.716Z,20.15
2023-02-08T14:28:59.087Z,21.08
2023-02-08T14:31:26.201Z,19.95
2023-02-08T14:33:53.075Z,17.70
2023-02-08T14:36:19.412Z,20.52
2023-02-08T14:38:45.738Z,18.92
2023-02-08T14:41:12.059Z,18.30
2023-02-08T14:43:38.449Z,20.08
2023-02-08T14:46:04.774Z,20.73
2023-02-08T14:48:31.158Z,18.65
2023-02-08T14:50:57.496Z,19.70
2023-02-08T14:53:23.803Z,21.65
2023-02-08T14:55:50.342Z,21.98
2023-02-08T14:58:16.709Z,21.17
2023-02-08T15:00:43.035Z,22.85
2023-02-08T15:03:09.338Z,21.33
2023-02-08T15:05:35.670Z,22.15
2023-02-08T15:08:02.116Z,22.50
2023-02-08T15:10:30.305Z,24.70
2023-02-08T15:12:57.765Z,26.45
2023-02-08T15:15:24.181Z,23.67
2023-02-08T15:17:50.581Z,21.95
2023-02-08T15:20:17.036Z,19.08
2023-02-08T15:22:43.393Z,20.45
2023-02-08T15:25:09.714Z,20.62
2023-02-08T15:27:36.069Z,20.77
2023-02-08T15:30:02.434Z,23.27
2023-02-08T15:32:28.778Z,20.83
2023-02-08T15:34:55.154Z,19.90
2023-02-08T15:37:21.487Z,20.50
2023-02-08T15:39:47.810Z,21.35
2023-02-08T15:42:14.124Z,22.20
2023-02-08T15:44:40.454Z,21.87
2023-02-08T15:47:06.753Z,22.00
2023-02-08T15:49:33.146Z,21.50
2023-02-08T15:51:59.481Z,21.17
2023-02-08T15:54:25.913Z,22.70
2023-02-08T15:56:52.278Z,24.10
2023-02-08T15:59:18.602Z,22.55
2023-02-08T16:01:44.924Z,24.55
2023-02-08T16:04:12.716Z,21.23
2023-02-08T16:06:39.178Z,19.00
2023-02-08T16:09:05.902Z,21.62
2023-02-08T16:11:32.262Z,21.10
2023-02-08T16:13:58.591Z,19.75
2023-02-08T16:16:30.124Z,23.65
2023-02-08T16:18:58.424Z,21.10
2023-02-08T16:21:24.830Z,25.37
2023-02-08T16:23:51.354Z,24.02
2023-02-08T16:26:17.927Z,21.23
2023-02-08T16:28:44.336Z,24.48
2023-02-08T16:31:11.527Z,24.42
2023-02-08T16:33:39.676Z,27.90
2023-02-08T16:36:06.013Z,25.27
2023-02-08T16:38:32.400Z,23.20
2023-02-08T16:41:12.075Z,23.23
2023-02-08T16:43:40.280Z,21.25
2023-02-08T16:46:06.605Z,24.60
2023-02-08T16:48:34.967Z,23.87
2023-02-08T16:51:01.300Z,22.08
2023-02-08T16:53:40.255Z,21.40
2023-02-08T16:56:08.137Z,23.17
2023-02-08T16:58:34.485Z,22.80
2023-02-08T17:01:00.875Z,21.35
2023-02-08T17:03:27.319Z,21.98
2023-02-08T17:05:53.652Z,25.52
2023-02-08T17:08:19.962Z,23.40
2023-02-08T17:10:48.609Z,23.17
2023-02-08T17:13:20.804Z,24.35
2023-02-08T17:15:47.831Z,23.02
2023-02-08T17:18:14.392Z,22.45
2023-02-08T17:20:40.741Z,24.12
2023-02-08T17:23:07.089Z,25.52
2023-02-08T17:25:37.117Z,23.75
2023-02-08T17:28:03.478Z,24.25
2023-02-08T17:30:29.796Z,29.55
2023-02-08T17:32:59.320Z,24.42
2023-02-08T17:35:25.653Z,26.73
2023-02-08T17:37:53.988Z,25.67
2023-02-08T17:40:20.366Z,23.58
2023-02-08T17:42:47.693Z,20.77
2023-02-08T17:45:14.148Z,23.65
2023-02-08T17:47:41.803Z,23.42
2023-02-08T17:50:08.146Z,24.70
2023-02-08T17:52:34.476Z,25.00
2023-02-08T17:55:00.845Z,26.77
2023-02-08T17:57:27.248Z,24.08
2023-02-08T17:59:53.641Z,25.50
2023-02-08T18:02:20.124Z,24.90
2023-02-08T18:04:46.470Z,22.83
2023-02-08T18:07:12.851Z,25.95
2023-02-08T18:09:39.544Z,24.95
2023-02-08T18:12:05.932Z,26.48
2023-02-08T18:14:32.244Z,27.23
2023-02-08T18:16:58.572Z,25.90
2023-02-08T18:19:24.886Z,28.77
2023-02-08T18:21:51.266Z,25.08
2023-02-08T18:24:18.871Z,26.80
2023-02-08T18:26:45.197Z,27.52
2023-02-08T18:29:15.064Z,26.37
2023-02-08T18:31:41.585Z,29.50
2023-02-08T18:34:08.005Z,28.25
2023-02-08T18:36:34.426Z,26.00
2023-02-08T18:39:00.763Z,33.50
2023-02-08T18:41:27.124Z,29.50
2023-02-08T18:43:54.910Z,26.80
2023-02-08T18:46:21.285Z,28.92
2023-02-08T18:48:47.986Z,27.05
2023-02-08T18:51:14.719Z,32.50
2023-02-08T18:53:41.023Z,26.23
2023-02-08T18:56:07.355Z,27.00
2023-02-08T18:58:33.661Z,28.83
2023-02-08T19:01:00.039Z,29.43
2023-02-08T19:03:26.475Z,24.12
2023-02-08T19:05:52.799Z,29.50
2023-02-08T19:08:20.659Z,28.03
2023-02-08T19:10:46.981Z,27.57
2023-02-08T19:13:13.406Z,29.60
2023-02-08T19:15:39.790Z,28.30
2023-02-08T19:18:06.158Z,26.60
2023-02-08T19:20:32.491Z,27.70
2023-02-08T19:22:58.959Z,28.85
2023-02-08T19:25:29.005Z,31.47
2023-02-08T19:27:55.383Z,26.52
2023-02-08T19:30:22.313Z,30.23
2023-02-08T19:32:48.777Z,28.77
2023-02-08T19:35:15.080Z,30.40
2023-02-08T19:37:42.545Z,27.63
2023-02-08T19:40:08.933Z,29.10
2023-02-08T19:42:35.424Z,30.42
2023-02-08T19:45:01.890Z,27.00
2023-02-08T19:47:48.421Z,30.57
2023-02-08T19:50:14.574Z,26.77
2023-02-08T19:52:43.423Z,28.40
2023-02-08T19:55:09.853Z,28.87
2023-02-08T19:57:36.225Z,27.20
2023-02-08T20:00:04.408Z,27.62
2023-02-08T20:02:32.762Z,28.17
2023-02-08T20:04:59.194Z,25.98
2023-02-08T20:07:25.526Z,26.83
2023-02-08T20:09:51.832Z,23.60
2023-02-08T20:12:19.789Z,25.65
2023-02-08T20:14:46.174Z,27.37
2023-02-08T20:17:12.499Z,23.97
2023-02-08T20:19:38.861Z,25.27
2023-02-08T20:22:05.243Z,23.70
2023-02-08T20:24:31.723Z,23.42
2023-02-08T20:26:58.039Z,22.83
2023-02-08T20:29:25.175Z,28.13
2023-02-08T20:31:58.254Z,24.20
2023-02-08T20:34:24.644Z,24.37
2023-02-08T20:37:05.753Z,23.87
2023-02-08T20:39:33.500Z,22.58
2023-02-08T20:41:59.883Z,22.05
2023-02-08T20:44:26.255Z,21.62
2023-02-08T20:46:54.642Z,24.00
2023-02-08T20:49:25.489Z,23.83
2023-02-08T20:51:52.420Z,23.10
2023-02-08T20:54:19.269Z,20.90
2023-02-08T20:56:45.597Z,21.93
2023-02-08T20:59:13.816Z,20.77
2023-02-08T21:01:40.301Z,21.90
2023-02-08T21:04:06.783Z,21.17
2023-02-08T21:06:33.169Z,25.87
2023-02-08T21:08:59.531Z,20.70
2023-02-08T21:11:25.836Z,18.67
2023-02-08T21:13:52.183Z,19.10
2023-02-08T21:16:18.587Z,20.17
2023-02-08T21:18:45.792Z,20.17
2023-02-08T21:21:12.135Z,17.97
2023-02-08T21:23:38.435Z,20.13
2023-02-08T21:26:04.800Z,15.93
2023-02-08T21:28:31.218Z,15.13
2023-02-08T21:30:57.714Z,19.43
2023-02-08T21:33:24.135Z,17.47
2023-02-08T21:35:50.450Z,15.13
2023-02-08T21:38:16.761Z,13.85
2023-02-08T21:40:43.411Z,15.23
2023-02-08T21:43:09.968Z,15.80
2023-02-08T21:45:36.270Z,13.90
2023-02-08T21:48:02.607Z,16.53
2023-02-08T21:50:47.902Z,13.45
2023-02-08T21:53:32.754Z,16.30
2023-02-08T21:55:59.136Z,13.35
2023-02-08T21:58:25.478Z,14.32
2023-02-08T22:00:51.793Z,14.43
2023-02-08T22:03:18.254Z,13.48
2023-02-08T22:05:44.573Z,14.33
2023-02-08T22:08:10.980Z,12.48
2023-02-08T22:10:38.254Z,13.60
2023-02-08T22:13:04.607Z,14.45
2023-02-08T22:15:31.048Z,15.18
2023-02-08T22:17:57.429Z,16.40
2023-02-08T22:20:23.747Z,13.50
2023-02-08T22:22:53.613Z,13.43
2023-02-08T22:25:21.239Z,13.32
2023-02-08T22:27:47.582Z,13.80
2023-02-08T22:30:13.891Z,16.83
2023-02-08T22:32:40.310Z,14.50
2023-02-08T22:35:06.665Z,15.80
2023-02-08T22:37:32.985Z,14.13
2023-02-08T22:39:59.308Z,13.18
2023-02-08T22:42:27.835Z,13.45
2023-02-08T22:44:54.148Z,15.82
2023-02-08T22:47:20.457Z,15.82
2023-02-08T22:49:46.802Z,13.00
2023-02-08T22:52:14.341Z,15.70
2023-02-08T22:54:40.661Z,15.87
2023-02-08T22:57:07.054Z,14.90
2023-02-08T22:59:33.480Z,14.57
2023-02-08T23:02:01.744Z,16.12
2023-02-08T23:04:28.140Z,13.93
2023-02-08T23:06:54.546Z,13.88
2023-02-08T23:09:20.846Z,14.90
2023-02-08T23:11:47.181Z,14.05
2023-02-08T23:14:13.494Z,15.87
2023-02-08T23:16:39.818Z,11.83
2023-02-08T23:19:06.179Z,15.55
2023-02-08T23:21:32.509Z,16.60
2023-02-08T23:23:58.815Z,15.27
2023-02-08T23:26:25.112Z,14.32
2023-02-08T23:28:51.425Z,15.50
2023-02-08T23:31:17.886Z,14.40
2023-02-08T23:33:44.286Z,14.32
2023-02-08T23:36:11.336Z,15.95
2023-02-08T23:38:37.656Z,13.10
2023-02-08T23:41:04.048Z,17.20
2023-02-08T23:43:30.352Z,15.30
2023-02-08T23:45:56.676Z,15.43
2023-02-08T23:48:22.993Z,15.90
2023-02-08T23:50:49.297Z,16.90
2023-02-08T23:53:15.608Z,14.33
2023-02-08T23:55:41.914Z,14.70
2023-02-08T23:58:08.216Z,14.17
